createdAt,value
2019-04-07T00:04:44.217Z,60.98
2019-04-07T00:07:18.377Z,57.40
2019-04-07T00:09:51.835Z,59.77
2019-04-07T00:12:25.401Z,59.83
2019-04-07T00:14:58.889Z,68.17
2019-04-07T00:17:32.360Z,62.20
2019-04-07T00:20:07.835Z,64.10
2019-04-07T00:22:42.171Z,61.00
2019-04-07T00:25:15.774Z,62.90
2019-04-07T00:27:49.239Z,55.17
2019-04-07T00:30:23.974Z,59.98
2019-04-07T00:32:57.422Z,55.23
2019-04-07T00:35:32.613Z,49.53
2019-04-07T00:38:06.155Z,60.50
2019-04-07T00:40:39.576Z,46.95
2019-04-07T00:43:13.628Z,46.55
2019-04-07T00:45:49.191Z,48.85
2019-04-07T00:48:23.200Z,55.43
2019-04-07T00:50:56.790Z,50.90
2019-04-07T00:53:30.272Z,56.08
2019-04-07T00:56:03.957Z,51.83
2019-04-07T00:58:38.290Z,50.30
2019-04-07T01:01:13.403Z,50.75
2019-04-07T01:03:46.915Z,48.20
2019-04-07T01:06:20.392Z,44.03
2019-04-07T01:11:52.397Z,36.98
2019-04-07T01:17:34.527Z,35.38
2019-04-07T01:20:10.646Z,40.88
2019-04-07T01:22:43.994Z,33.83
2019-04-07T01:25:17.643Z,31.12
2019-04-07T01:27:51.230Z,37.65
2019-04-07T01:30:27.229Z,33.28
2019-04-07T01:33:00.922Z,32.53
2019-04-07T01:35:45.074Z,34.55
2019-04-07T01:38:11.733Z,32.10
2019-04-07T01:40:46.733Z,33.95
2019-04-07T01:43:25.117Z,36.48
2019-04-07T01:46:06.330Z,40.10
2019-04-07T01:48:45.706Z,41.98
2019-04-07T01:55:09.211Z,34.50
2019-04-07T01:57:57.054Z,33.60
2019-04-07T02:00:33.750Z,31.93
2019-04-07T02:03:12.106Z,34.80
2019-04-07T02:06:05.031Z,36.42
2019-04-07T02:08:55.905Z,41.98
2019-04-07T02:11:30.966Z,43.75
2019-04-07T02:14:16.560Z,41.83
2019-04-07T02:17:08.009Z,47.73
2019-04-07T02:19:43.196Z,43.35
2019-04-07T02:22:19.277Z,42.30
2019-04-07T02:24:55.417Z,37.42
2019-04-07T02:27:31.772Z,44.38
2019-04-07T02:30:22.145Z,41.90
2019-04-07T02:33:03.270Z,41.98
2019-04-07T02:35:41.871Z,40.28
2019-04-07T02:38:21.494Z,44.38
2019-04-07T02:40:57.509Z,36.70
2019-04-07T02:43:32.769Z,30.85
2019-04-07T02:46:06.063Z,31.50
2019-04-07T02:48:57.755Z,29.00
2019-04-07T02:51:33.739Z,24.63
2019-04-07T02:54:27.387Z,26.55
2019-04-07T02:57:08.364Z,24.47
2019-04-07T03:00:01.496Z,23.02
2019-04-07T03:02:39.385Z,22.90
2019-04-07T03:05:15.727Z,21.90
2019-04-07T03:07:58.089Z,22.65
2019-04-07T03:10:33.427Z,25.45
2019-04-07T03:13:10.645Z,24.23
2019-04-07T03:16:02.149Z,23.60
2019-04-07T03:18:37.418Z,24.32
2019-04-07T03:21:19.664Z,27.07
2019-04-07T03:23:54.865Z,29.85
2019-04-07T03:26:48.684Z,26.50
2019-04-07T03:29:40.282Z,24.52
2019-04-07T03:32:45.078Z,21.85
2019-04-07T03:35:34.829Z,24.47
2019-04-07T03:38:22.644Z,20.75
2019-04-07T03:41:19.681Z,27.05
2019-04-07T03:43:57.620Z,28.92
2019-04-07T03:46:30.817Z,35.05
2019-04-07T03:49:07.272Z,33.42
2019-04-07T03:51:49.758Z,43.92
2019-04-07T03:54:24.915Z,36.28
2019-04-07T03:57:16.572Z,34.70
2019-04-07T03:59:51.815Z,35.70
2019-04-07T04:02:29.575Z,35.20
2019-04-07T04:05:19.084Z,30.55
2019-04-07T04:08:02.163Z,31.42
2019-04-07T04:10:40.776Z,28.62
2019-04-07T04:13:23.084Z,31.23
2019-04-07T04:16:01.079Z,33.63
2019-04-07T04:18:35.228Z,32.70
2019-04-07T04:21:09.089Z,34.03
2019-04-07T04:23:44.284Z,34.65
2019-04-07T04:26:18.053Z,37.40
2019-04-07T04:28:51.971Z,37.10
2019-04-07T04:31:25.706Z,38.33
2019-04-07T04:33:59.178Z,41.20
2019-04-07T04:36:33.743Z,42.40
2019-04-07T04:39:08.519Z,40.55
2019-04-07T04:41:42.609Z,47.20
2019-04-07T04:44:16.497Z,45.43
2019-04-07T04:46:50.206Z,43.58
2019-04-07T04:49:23.678Z,52.33
2019-04-07T04:52:00.525Z,48.05
2019-04-07T04:54:34.141Z,46.60
2019-04-07T04:57:09.167Z,53.98
2019-04-07T04:59:42.805Z,50.73
2019-04-07T05:02:17.111Z,46.63
2019-04-07T05:04:51.583Z,45.25
2019-04-07T05:07:26.303Z,47.83
2019-04-07T05:10:00.071Z,49.23
2019-04-07T05:12:33.562Z,54.73
2019-04-07T05:15:09.807Z,53.05
2019-04-07T05:17:43.607Z,48.30
2019-04-07T05:20:17.343Z,56.10
2019-04-07T05:22:53.408Z,49.48
2019-04-07T05:25:27.404Z,54.70
2019-04-07T05:28:01.225Z,55.95
2019-04-07T05:30:47.146Z,51.37
2019-04-07T05:33:21.118Z,51.05
2019-04-07T05:35:54.845Z,50.20
2019-04-07T05:38:29.061Z,44.70
2019-04-07T05:41:02.997Z,42.05
2019-04-07T05:43:36.960Z,38.75
2019-04-07T05:46:10.445Z,37.80
2019-04-07T05:48:44.511Z,42.43
2019-04-07T05:51:18.034Z,36.53
2019-04-07T05:53:51.686Z,34.98
2019-04-07T05:56:28.104Z,35.45
2019-04-07T05:59:00.577Z,44.00
2019-04-07T06:01:34.536Z,38.10
2019-04-07T06:04:08.912Z,37.45
2019-04-07T06:06:42.413Z,36.25
2019-04-07T06:09:18.910Z,36.88
2019-04-07T06:11:51.009Z,37.03
2019-04-07T06:14:26.030Z,38.08
2019-04-07T06:17:00.010Z,39.73
2019-04-07T06:19:37.461Z,36.08
2019-04-07T06:22:08.673Z,37.20
2019-04-07T06:24:42.173Z,38.33
2019-04-07T06:27:16.956Z,39.67
2019-04-07T06:29:51.238Z,41.42
2019-04-07T06:32:25.542Z,35.25
2019-04-07T06:34:59.392Z,37.83
2019-04-07T06:37:33.115Z,38.17
2019-04-07T06:40:07.892Z,34.70
2019-04-07T06:42:43.942Z,34.08
2019-04-07T06:45:23.656Z,38.08
2019-04-07T06:48:07.708Z,35.23
2019-04-07T06:50:50.252Z,34.33
2019-04-07T06:53:39.227Z,33.65
2019-04-07T06:56:17.562Z,34.55
2019-04-07T06:59:13.869Z,36.08
2019-04-07T07:01:47.695Z,34.18
2019-04-07T07:04:23.221Z,37.10
2019-04-07T07:06:58.933Z,32.93
2019-04-07T07:09:50.289Z,36.20
2019-04-07T07:12:32.301Z,37.70
2019-04-07T07:15:09.081Z,36.03
2019-04-07T07:17:47.960Z,37.35
2019-04-07T07:20:37.331Z,41.23
2019-04-07T07:23:15.825Z,41.83
2019-04-07T07:25:50.529Z,36.73
2019-04-07T07:28:24.153Z,41.25
2019-04-07T07:30:57.520Z,38.63
2019-04-07T07:33:31.129Z,42.03
2019-04-07T07:36:04.839Z,44.55
2019-04-07T07:38:38.503Z,45.15
2019-04-07T07:41:11.964Z,47.88
2019-04-07T07:43:46.048Z,46.23
2019-04-07T07:46:21.825Z,40.85
2019-04-07T07:48:58.922Z,40.92
2019-04-07T07:51:30.345Z,41.63
2019-04-07T07:54:04.647Z,37.60
2019-04-07T07:56:41.377Z,38.53
2019-04-07T07:59:13.474Z,31.33
2019-04-07T08:01:47.543Z,34.58
2019-04-07T08:04:24.819Z,24.98
2019-04-07T08:07:02.309Z,30.55
2019-04-07T08:09:35.726Z,29.75
2019-04-07T08:12:09.494Z,27.58
2019-04-07T08:14:44.630Z,26.17
2019-04-07T08:17:19.337Z,25.55
2019-04-07T08:19:53.044Z,25.25
2019-04-07T08:22:32.558Z,25.37
2019-04-07T08:25:02.439Z,25.10
2019-04-07T08:27:36.134Z,25.48
2019-04-07T08:30:13.314Z,28.15
2019-04-07T08:32:45.459Z,28.75
2019-04-07T08:35:19.779Z,29.70
2019-04-07T08:37:53.461Z,28.90
2019-04-07T08:40:27.437Z,27.87
2019-04-07T08:43:01.218Z,28.10
2019-04-07T08:45:35.060Z,28.87
2019-04-07T08:48:09.060Z,28.73
2019-04-07T08:50:43.771Z,36.08
2019-04-07T08:53:17.274Z,37.45
2019-04-07T08:55:54.390Z,45.28
2019-04-07T08:58:29.005Z,39.23
2019-04-07T09:01:02.084Z,42.90
2019-04-07T09:03:36.800Z,48.13
2019-04-07T09:06:10.954Z,45.67
2019-04-07T09:08:44.964Z,48.85
2019-04-07T09:11:22.239Z,46.92
2019-04-07T09:13:55.921Z,45.08
2019-04-07T09:16:31.206Z,42.17
2019-04-07T09:19:13.693Z,40.52
2019-04-07T09:21:51.437Z,45.75
2019-04-07T09:24:43.930Z,45.73
2019-04-07T09:27:36.295Z,48.63
2019-04-07T09:30:15.301Z,45.28
2019-04-07T09:32:48.672Z,46.58
2019-04-07T09:35:24.044Z,40.25
2019-04-07T09:37:56.767Z,44.65
2019-04-07T09:40:39.404Z,40.12
2019-04-07T09:43:34.835Z,46.13
2019-04-07T09:46:26.511Z,38.60
2019-04-07T09:49:11.897Z,39.40
2019-04-07T09:51:56.269Z,40.25
2019-04-07T09:54:31.377Z,38.53
2019-04-07T09:57:22.582Z,32.10
2019-04-07T10:00:00.496Z,34.40
2019-04-07T10:02:44.861Z,30.52
2019-04-07T10:05:19.989Z,37.93
2019-04-07T10:08:13.736Z,38.92
2019-04-07T10:10:48.306Z,35.33
2019-04-07T10:13:29.667Z,31.65
2019-04-07T10:16:09.966Z,29.05
2019-04-07T10:18:52.154Z,34.23
2019-04-07T10:21:31.141Z,28.12
2019-04-07T10:24:12.237Z,31.40
2019-04-07T10:27:02.453Z,22.52
2019-04-07T10:29:43.878Z,21.30
2019-04-07T10:32:27.995Z,17.10
2019-04-07T10:35:03.145Z,17.23
2019-04-07T10:37:38.907Z,19.87
2019-04-07T10:40:25.464Z,21.70
2019-04-07T10:43:18.621Z,22.17
2019-04-07T10:46:12.443Z,18.55
2019-04-07T10:48:53.670Z,20.48
2019-04-07T10:51:31.933Z,18.32
2019-04-07T10:54:25.094Z,18.25
2019-04-07T10:57:00.958Z,24.55
2019-04-07T10:59:45.303Z,20.43
2019-04-07T11:02:20.312Z,20.08
2019-04-07T11:05:01.907Z,23.95
2019-04-07T11:07:53.688Z,26.42
2019-04-07T11:10:45.274Z,26.93
2019-04-07T11:13:36.849Z,24.37
2019-04-07T11:16:10.904Z,23.87
2019-04-07T11:18:50.444Z,23.12
2019-04-07T11:21:28.302Z,24.82
2019-04-07T11:24:12.341Z,25.70
2019-04-07T11:26:47.546Z,24.35
2019-04-07T11:29:36.250Z,22.20
2019-04-07T11:32:12.236Z,24.32
2019-04-07T11:35:03.860Z,21.55
2019-04-07T11:37:41.917Z,23.73
2019-04-07T11:40:26.064Z,22.62
2019-04-07T11:43:10.653Z,22.48
2019-04-07T11:45:56.165Z,22.73
2019-04-07T11:48:26.354Z,25.62
2019-04-07T11:51:11.527Z,22.02
2019-04-07T11:53:56.716Z,22.90
2019-04-07T11:56:31.746Z,23.62
2019-04-07T11:59:06.882Z,30.77
2019-04-07T12:01:51.984Z,23.55
2019-04-07T12:04:25.234Z,22.32
2019-04-07T12:07:19.247Z,22.35
2019-04-07T12:09:54.230Z,24.65
2019-04-07T12:12:30.005Z,24.50
2019-04-07T12:15:22.742Z,20.65
2019-04-07T12:18:07.174Z,22.35
2019-04-07T12:21:01.126Z,17.27
2019-04-07T12:23:43.435Z,18.92
2019-04-07T12:26:31.475Z,18.42
2019-04-07T12:29:12.603Z,19.57
2019-04-07T12:31:48.450Z,18.80
2019-04-07T12:34:26.575Z,17.62
2019-04-07T12:37:07.564Z,19.30
2019-04-07T12:39:57.894Z,22.50
2019-04-07T12:42:48.884Z,21.75
2019-04-07T12:45:27.772Z,17.67
2019-04-07T12:48:06.837Z,19.40
2019-04-07T12:50:43.659Z,19.27
2019-04-07T12:53:19.554Z,18.70
2019-04-07T12:55:57.644Z,20.12
2019-04-07T12:58:33.552Z,20.27
2019-04-07T13:01:19.952Z,19.05
2019-04-07T13:04:04.714Z,17.87
2019-04-07T13:06:45.423Z,18.10
2019-04-07T13:09:32.394Z,17.77
2019-04-07T13:12:07.664Z,17.77
2019-04-07T13:14:50.238Z,17.40
2019-04-07T13:17:38.110Z,17.70
2019-04-07T13:20:21.540Z,19.42
2019-04-07T13:23:13.679Z,18.52
2019-04-07T13:26:00.860Z,20.00
2019-04-07T13:28:41.875Z,17.55
2019-04-07T13:31:17.030Z,18.27
2019-04-07T13:33:59.590Z,18.20
2019-04-07T13:36:34.409Z,18.25
2019-04-07T13:39:17.959Z,17.02
2019-04-07T13:42:00.312Z,19.60
2019-04-07T13:44:38.750Z,20.70
2019-04-07T13:47:22.003Z,19.23
2019-04-07T13:50:13.773Z,21.95
2019-04-07T13:52:55.011Z,20.88
2019-04-07T13:55:35.051Z,21.25
2019-04-07T13:58:19.704Z,20.27
2019-04-07T14:01:18.512Z,19.73
2019-04-07T14:03:58.669Z,17.95
2019-04-07T14:06:45.012Z,18.60
2019-04-07T14:09:37.500Z,17.77
2019-04-07T14:12:12.839Z,17.48
2019-04-07T14:14:50.817Z,19.00
2019-04-07T14:17:24.756Z,18.30
2019-04-07T14:20:00.556Z,18.27
2019-04-07T14:22:36.381Z,18.45
2019-04-07T14:25:23.474Z,17.40
2019-04-07T14:28:02.314Z,20.37
2019-04-07T14:30:54.234Z,19.67
2019-04-07T14:33:35.864Z,19.45
2019-04-07T14:36:22.385Z,21.10
2019-04-07T14:39:02.082Z,22.25
2019-04-07T14:42:03.707Z,21.52
2019-04-07T14:44:31.893Z,18.20
2019-04-07T14:47:22.912Z,19.90
2019-04-07T14:50:16.373Z,25.17
2019-04-07T14:52:54.733Z,20.62
2019-04-07T14:55:31.493Z,20.65
2019-04-07T14:58:19.010Z,18.82
2019-04-07T15:01:04.511Z,20.65
2019-04-07T15:03:36.754Z,22.15
2019-04-07T15:06:10.922Z,19.37
2019-04-07T15:08:48.758Z,18.10
2019-04-07T15:11:21.912Z,22.52
2019-04-07T15:13:58.739Z,20.32
2019-04-07T15:16:30.506Z,21.07
2019-04-07T15:19:04.309Z,34.05
2019-04-07T15:21:37.914Z,90.92
2019-04-07T15:24:11.398Z,24.60
2019-04-07T15:26:49.511Z,27.73
2019-04-07T15:29:20.956Z,25.68
2019-04-07T15:31:54.504Z,26.87
2019-04-07T15:34:28.567Z,24.27
2019-04-07T15:37:02.343Z,25.30
2019-04-07T15:39:37.246Z,25.82
2019-04-07T15:42:11.482Z,28.50
2019-04-07T15:44:46.205Z,23.98
2019-04-07T15:47:21.135Z,29.00
2019-04-07T15:49:57.732Z,22.82
2019-04-07T15:52:31.491Z,23.67
2019-04-07T15:55:07.325Z,23.50
2019-04-07T15:57:40.952Z,25.55
2019-04-07T16:00:15.334Z,23.55
2019-04-07T16:02:50.201Z,23.85
2019-04-07T16:05:23.864Z,24.35
2019-04-07T16:07:57.798Z,26.97
2019-04-07T16:10:31.394Z,26.15
2019-04-07T16:13:04.996Z,28.60
2019-04-07T16:15:38.473Z,27.02
2019-04-07T16:18:12.646Z,29.42
2019-04-07T16:20:46.633Z,24.87
2019-04-07T16:23:20.992Z,23.70
2019-04-07T16:25:57.986Z,24.02
2019-04-07T16:28:30.782Z,31.00
2019-04-07T16:31:06.433Z,58.10
2019-04-07T16:33:41.008Z,37.10
2019-04-07T16:36:14.890Z,30.15
2019-04-07T16:38:48.385Z,33.78
2019-04-07T16:41:22.355Z,39.88
2019-04-07T16:43:55.974Z,39.73
2019-04-07T16:46:30.422Z,28.30
2019-04-07T16:49:04.558Z,31.48
2019-04-07T16:51:38.416Z,27.80
2019-04-07T16:54:11.847Z,30.37
2019-04-07T16:56:45.538Z,31.25
2019-04-07T16:59:19.450Z,26.40
2019-04-07T17:01:53.026Z,26.45
2019-04-07T17:04:26.816Z,26.73
2019-04-07T17:07:05.019Z,24.77
2019-04-07T17:09:36.598Z,27.37
2019-04-07T17:12:11.609Z,21.87
2019-04-07T17:14:45.975Z,24.82
2019-04-07T17:17:21.716Z,26.87
2019-04-07T17:19:57.480Z,27.20
2019-04-07T17:22:30.478Z,25.40
2019-04-07T17:25:07.479Z,24.75
2019-04-07T17:27:42.385Z,26.05
2019-04-07T17:30:23.651Z,50.75
2019-04-07T17:32:56.607Z,37.25
2019-04-07T17:35:30.742Z,35.00
2019-04-07T17:38:06.890Z,33.92
2019-04-07T17:40:51.846Z,37.08
2019-04-07T17:43:43.541Z,31.65
2019-04-07T17:46:10.604Z,26.00
2019-04-07T17:48:58.580Z,28.90
2019-04-07T17:51:43.859Z,27.98
2019-04-07T17:54:28.933Z,30.92
2019-04-07T17:57:06.498Z,35.38
2019-04-07T17:59:44.870Z,34.60
2019-04-07T18:02:34.935Z,33.88
2019-04-07T18:05:11.446Z,43.63
2019-04-07T18:08:05.863Z,44.50
2019-04-07T18:10:47.559Z,35.15
2019-04-07T18:13:43.322Z,37.95
2019-04-07T18:16:21.303Z,39.48
2019-04-07T18:19:05.515Z,37.67
2019-04-07T18:21:44.842Z,39.95
2019-04-07T18:24:18.431Z,43.15
2019-04-07T18:27:03.353Z,34.55
2019-04-07T18:29:42.873Z,36.83
2019-04-07T18:32:25.318Z,40.73
2019-04-07T18:35:03.126Z,42.95
2019-04-07T18:37:44.290Z,62.10
2019-04-07T18:40:19.944Z,48.13
2019-04-07T18:43:13.829Z,40.83
2019-04-07T18:45:51.309Z,39.15
2019-04-07T18:48:42.243Z,40.67
2019-04-07T18:55:18.554Z,40.85
2019-04-07T18:58:21.196Z,41.98
2019-04-07T19:01:11.617Z,51.28
2019-04-07T19:03:56.675Z,60.00
2019-04-07T19:06:52.655Z,46.20
2019-04-07T19:09:30.268Z,46.37
2019-04-07T19:12:13.131Z,48.68
2019-04-07T19:14:47.837Z,48.33
2019-04-07T19:17:21.680Z,52.33
2019-04-07T19:20:08.897Z,55.08
2019-04-07T19:22:51.475Z,59.40
2019-04-07T19:25:27.011Z,61.13
2019-04-07T19:28:12.662Z,61.60
2019-04-07T19:30:50.107Z,66.22
2019-04-07T19:33:40.365Z,63.33
2019-04-07T19:36:27.856Z,61.23
2019-04-07T19:39:09.966Z,66.70
2019-04-07T19:42:07.113Z,69.07
2019-04-07T19:44:41.326Z,58.40
2019-04-07T19:47:20.700Z,63.28
2019-04-07T19:50:11.120Z,63.25
2019-04-07T19:53:05.642Z,65.83
2019-04-07T19:55:38.813Z,66.27
2019-04-07T19:58:19.872Z,65.42
2019-04-07T20:01:12.917Z,69.50
2019-04-07T20:04:03.859Z,82.20
2019-04-07T20:06:42.726Z,85.85
2019-04-07T20:09:17.603Z,79.87
2019-04-07T20:12:05.194Z,73.30
2019-04-07T20:15:03.031Z,82.08
2019-04-07T20:17:37.679Z,83.85
2019-04-07T20:20:30.255Z,90.60
2019-04-07T20:23:09.125Z,81.47
2019-04-07T20:25:45.988Z,75.33
2019-04-07T20:28:19.470Z,80.57
2019-04-07T20:30:56.884Z,76.60
2019-04-07T20:33:40.685Z,76.45
2019-04-07T20:36:21.524Z,85.13
2019-04-07T20:39:07.548Z,83.42
2019-04-07T20:41:43.063Z,84.87
2019-04-07T20:44:33.679Z,88.83
2019-04-07T20:47:05.592Z,98.90
2019-04-07T20:49:48.210Z,120.77
2019-04-07T20:52:29.928Z,127.10
2019-04-07T20:55:21.277Z,111.53
2019-04-07T20:58:10.195Z,124.15
2019-04-07T21:00:57.653Z,114.37
2019-04-07T21:03:45.035Z,118.83
2019-04-07T21:06:34.731Z,125.53
2019-04-07T21:09:10.697Z,125.60
2019-04-07T21:12:01.579Z,121.80
2019-04-07T21:14:36.691Z,113.03
2019-04-07T21:17:21.704Z,111.07
2019-04-07T21:19:57.530Z,112.57
2019-04-07T21:22:31.427Z,98.13
2019-04-07T21:25:09.280Z,102.20
2019-04-07T21:27:51.305Z,104.50
2019-04-07T21:30:34.146Z,109.23
2019-04-07T21:33:11.936Z,106.10
2019-04-07T21:36:07.850Z,100.93
2019-04-07T21:38:41.564Z,109.57
2019-04-07T21:41:28.914Z,112.60
2019-04-07T21:44:11.349Z,116.23
2019-04-07T21:47:02.490Z,112.90
2019-04-07T21:49:47.887Z,114.20
2019-04-07T21:52:23.377Z,107.53
2019-04-07T21:54:55.882Z,106.73
2019-04-07T21:57:54.946Z,103.70
2019-04-07T22:00:32.955Z,144.03
2019-04-07T22:03:13.420Z,134.70
2019-04-07T22:06:02.655Z,122.13
2019-04-07T22:11:32.634Z,128.53
2019-04-07T22:14:07.691Z,118.93
2019-04-07T22:16:47.112Z,115.27
2019-04-07T22:19:20.586Z,106.80
2019-04-07T22:21:56.568Z,106.07
2019-04-07T22:24:33.286Z,99.20
2019-04-07T22:27:05.559Z,106.37
2019-04-07T22:29:39.236Z,108.47
2019-04-07T22:32:17.478Z,99.73
2019-04-07T22:34:48.204Z,104.20
2019-04-07T22:37:22.471Z,119.07
2019-04-07T22:39:59.069Z,119.20
2019-04-07T22:42:32.967Z,122.07
2019-04-07T22:45:08.202Z,118.37
2019-04-07T22:47:43.429Z,96.10
2019-04-07T22:50:17.452Z,81.00
2019-04-07T22:52:51.041Z,83.03
2019-04-07T22:55:25.559Z,89.00
2019-04-07T22:57:59.882Z,83.57
2019-04-07T23:00:33.440Z,81.27
2019-04-07T23:03:08.465Z,80.47
2019-04-07T23:05:42.034Z,83.53
2019-04-07T23:08:18.760Z,81.17
2019-04-07T23:10:58.380Z,76.93
2019-04-07T23:13:29.157Z,77.40
2019-04-07T23:16:10.831Z,79.67
2019-04-07T23:18:38.547Z,69.40
2019-04-07T23:21:12.002Z,74.67
2019-04-07T23:23:46.230Z,76.63
2019-04-07T23:26:20.790Z,80.97
2019-04-07T23:28:54.427Z,72.27
2019-04-07T23:31:29.978Z,78.43
2019-04-07T23:34:03.448Z,73.83
2019-04-07T23:36:43.915Z,78.03
2019-04-07T23:39:18.161Z,80.50
2019-04-07T23:41:53.274Z,88.57
2019-04-07T23:44:27.647Z,93.20
2019-04-07T23:47:01.284Z,91.67
2019-04-07T23:49:34.845Z,84.83
2019-04-07T23:52:11.022Z,87.57
2019-04-07T23:54:44.687Z,92.10
2019-04-07T23:57:18.161Z,97.17
2019-04-07T23:59:51.657Z,94.33
